Terminal Aerodrome Forecast
Issued by NWS Springfield, MO

Home | Current Version | Previous Version | Text Only | Print | Product List | Glossary On
Versions: 1 2 3 4 5 6 7 8 9 10 11 12 13 14 15 16 17 18 19 20 21 22 23 24 25 26
000
FTUS43 KSGF 251720
TAFSGF
TAF
KSGF 251720Z 2518/2618 31010KT P6SM SKC
     FM252200 30006KT P6SM SKC
     FM260200 00000KT P6SM SKC
     FM260800 16006KT P6SM BKN250=

USA.gov is the U.S. government's official web portal to all federal, state and local government web resources and services.